Terminal Aerodrome Forecast
Issued by NWS Cleveland, OH

Home | Current Version | Previous Version | Text Only | Print | Product List | Glossary On
Versions: 1 2 3 4 5 6 7 8 9 10 11 12 13 14 15 16 17
504
FTUS41 KCLE 051919 AAA
TAFCAK
TAF AMD
KCAK 051919Z 0519/0618 35011KT P6SM VCSH SCT020 BKN040
     FM060100 36007KT P6SM BKN040
      TEMPO 0609/0611 5SM BR
     FM061200 35010KT P6SM SCT120 SCT250=

USA.gov is the U.S. government's official web portal to all federal, state and local government web resources and services.